Terminal Aerodrome Forecast
Issued by NWS

Home | Current Version | Previous Version | Text Only | Print | Product List | Glossary On
Versions: 1 2 3 4 5 6 7 8 9 10 11 12
000
FTUS44 KLIX 010500
TAFGPT
TAF
KGPT 010530Z 0106/0206 00000KT P6SM SKC
     FM011500 34004KT P6SM BKN100
     FM011700 17006KT P6SM VCSH BKN100
     FM012330 VRB03KT P6SM BKN080=

USA.gov is the U.S. government's official web portal to all federal, state and local government web resources and services.